Terminal Aerodrome Forecast
Issued by NWS

Current Version | Previous Version | Text Only | Print | Product List | Glossary On
Versions: 1 2 3 4 5 6 7 8 9 10 11 12
000
FTUS43 KMQT 052335
TAFCMX
TAF
KCMX 052335Z 0600/0624 16008KT P6SM SCT250
     FM060200 20007KT P6SM BKN120 WS010/23035KT
     FM061000 20007KT P6SM -SHRA BKN060
     FM061500 13005KT 6SM -SHRA BR OVC030
     FM061700 17008KT 5SM -SHRA BR OVC015
     FM062000 30014G21KT 2SM -SHRA BR OVC007
     FM062200 33015G24KT 2SM -SHRA BR OVC004=

USA.gov is the U.S. government's official web portal to all federal, state and local government web resources and services.